createdAt,value
2018-07-09T00:00:19.637Z,2.97
2018-07-09T00:02:49.289Z,3.67
2018-07-09T00:05:19.293Z,2.70
2018-07-09T00:07:48.883Z,2.57
2018-07-09T00:11:22.864Z,3.17
2018-07-09T00:14:01.656Z,3.00
2018-07-09T00:16:31.567Z,2.80
2018-07-09T00:19:01.258Z,2.83
2018-07-09T00:21:30.983Z,2.90
2018-07-09T00:24:07.322Z,2.90
2018-07-09T00:26:36.968Z,2.80
2018-07-09T00:29:06.806Z,2.77
2018-07-09T00:31:48.441Z,2.93
2018-07-09T00:34:23.992Z,2.70
2018-07-09T00:36:59.325Z,2.70
2018-07-09T00:39:28.285Z,2.97
2018-07-09T00:42:06.741Z,2.73
2018-07-09T00:44:36.457Z,3.20
2018-07-09T00:47:06.017Z,2.97
2018-07-09T00:49:36.104Z,3.40
2018-07-09T00:52:05.771Z,3.47
2018-07-09T00:54:48.994Z,2.80
2018-07-09T00:57:19.010Z,3.20
2018-07-09T00:59:48.887Z,3.37
2018-07-09T01:02:18.666Z,3.10
2018-07-09T01:04:53.996Z,2.93
2018-07-09T01:07:27.952Z,3.07
2018-07-09T01:10:05.348Z,2.80
2018-07-09T01:12:46.215Z,3.20
2018-07-09T01:15:30.571Z,2.83
2018-07-09T01:18:06.046Z,3.40
2018-07-09T01:20:42.447Z,3.23
2018-07-09T01:23:17.175Z,3.37
2018-07-09T01:25:46.870Z,3.50
2018-07-09T01:28:25.475Z,4.07
2018-07-09T01:30:54.949Z,3.00
2018-07-09T01:33:25.965Z,4.30
2018-07-09T01:35:55.515Z,3.50
2018-07-09T01:38:29.598Z,3.90
2018-07-09T01:40:59.188Z,3.50
2018-07-09T01:43:36.700Z,3.10
2018-07-09T01:46:11.953Z,3.20
2018-07-09T01:48:51.161Z,3.73
2018-07-09T01:51:29.433Z,3.90
2018-07-09T01:54:11.923Z,3.37
2018-07-09T01:56:49.790Z,3.63
2018-07-09T01:59:19.813Z,4.30
2018-07-09T02:01:54.059Z,3.93
2018-07-09T02:04:35.384Z,3.60
2018-07-09T02:07:10.992Z,4.40
2018-07-09T02:09:45.756Z,4.10
2018-07-09T02:12:19.703Z,4.07
2018-07-09T02:14:58.442Z,4.03
2018-07-09T02:17:28.503Z,4.20
2018-07-09T02:20:18.130Z,4.27
2018-07-09T02:23:07.968Z,3.83
2018-07-09T02:25:43.904Z,4.20
2018-07-09T02:28:18.228Z,4.37
2018-07-09T02:30:47.749Z,4.03
2018-07-09T02:33:17.351Z,5.70
2018-07-09T02:35:46.965Z,4.70
2018-07-09T02:38:16.356Z,5.23
2018-07-09T02:40:45.865Z,4.10
2018-07-09T02:43:26.016Z,4.23
2018-07-09T02:45:55.931Z,4.33
2018-07-09T02:48:25.906Z,4.23
2018-07-09T02:50:57.060Z,7.60
2018-07-09T02:53:27.091Z,4.97
2018-07-09T02:56:03.621Z,4.73
2018-07-09T02:58:38.987Z,4.63
2018-07-09T03:01:18.584Z,4.43
2018-07-09T03:03:54.891Z,4.70
2018-07-09T03:06:30.006Z,4.67
2018-07-09T03:08:59.751Z,5.20
2018-07-09T03:11:29.317Z,5.60
2018-07-09T03:13:58.739Z,4.90
2018-07-09T03:16:28.528Z,5.00
2018-07-09T03:18:58.043Z,4.90
2018-07-09T03:21:27.501Z,4.60
2018-07-09T03:24:03.906Z,5.23
2018-07-09T03:26:34.099Z,5.00
2018-07-09T03:29:09.333Z,4.50
2018-07-09T03:31:39.387Z,4.90
2018-07-09T03:34:09.073Z,4.77
2018-07-09T03:36:38.621Z,4.93
2018-07-09T03:39:08.495Z,5.67
2018-07-09T03:41:37.987Z,5.47
2018-07-09T03:44:07.625Z,5.00
2018-07-09T03:46:37.665Z,4.87
2018-07-09T03:49:07.252Z,5.80
2018-07-09T03:51:43.535Z,5.10
2018-07-09T03:54:13.386Z,5.40
2018-07-09T03:56:48.546Z,5.90
2018-07-09T03:59:24.926Z,5.80
2018-07-09T04:02:00.043Z,5.03
2018-07-09T04:04:29.800Z,5.23
2018-07-09T04:07:05.371Z,5.17
2018-07-09T04:09:40.419Z,5.40
2018-07-09T04:12:11.449Z,5.90
2018-07-09T04:14:46.129Z,5.40
2018-07-09T04:19:53.828Z,5.47
2018-07-09T04:22:23.699Z,6.83
2018-07-09T04:24:53.256Z,5.40
2018-07-09T04:27:23.078Z,5.50
2018-07-09T04:29:56.555Z,5.70
2018-07-09T04:32:26.109Z,5.63
2018-07-09T04:34:59.987Z,5.00
2018-07-09T04:37:29.524Z,6.10
2018-07-09T04:39:59.672Z,7.20
2018-07-09T04:42:29.455Z,6.37
2018-07-09T04:44:58.943Z,6.30
2018-07-09T04:47:37.619Z,5.90
2018-07-09T04:50:12.230Z,5.80
2018-07-09T04:52:47.163Z,5.90
2018-07-09T04:55:23.311Z,5.93
2018-07-09T04:57:59.455Z,6.00
2018-07-09T05:00:34.216Z,6.40
2018-07-09T05:03:04.246Z,5.60
2018-07-09T05:05:33.791Z,7.17
2018-07-09T05:08:10.898Z,6.07
2018-07-09T05:10:40.944Z,5.63
2018-07-09T05:13:10.679Z,5.70
2018-07-09T05:15:47.469Z,5.60
2018-07-09T05:18:17.616Z,5.97
2018-07-09T05:20:47.396Z,5.70
2018-07-09T05:23:17.610Z,5.97
2018-07-09T05:25:58.096Z,5.93
2018-07-09T05:28:33.853Z,6.30
2018-07-09T05:31:03.455Z,5.90
2018-07-09T05:33:33.273Z,6.77
2018-07-09T05:36:02.947Z,5.60
2018-07-09T05:41:11.507Z,6.10
2018-07-09T05:43:42.187Z,5.93
2018-07-09T05:46:12.214Z,6.37
2018-07-09T05:48:43.017Z,6.20
2018-07-09T05:51:12.708Z,5.97
2018-07-09T05:53:42.619Z,5.60
2018-07-09T05:56:12.451Z,6.30
2018-07-09T06:01:32.056Z,6.00
2018-07-09T06:04:10.986Z,5.53
2018-07-09T06:06:41.711Z,6.27
2018-07-09T06:09:27.379Z,6.10
2018-07-09T06:12:01.750Z,5.83
2018-07-09T06:14:31.439Z,6.10
2018-07-09T06:17:01.729Z,6.50
2018-07-09T06:19:41.242Z,5.90
2018-07-09T06:22:11.138Z,4.23
2018-07-09T06:24:41.293Z,5.53
2018-07-09T06:27:16.600Z,4.87
2018-07-09T06:29:48.939Z,5.17
2018-07-09T06:32:25.779Z,4.63
2018-07-09T06:34:55.835Z,4.13
2018-07-09T06:37:25.513Z,4.67
2018-07-09T06:39:55.016Z,4.63
2018-07-09T06:42:31.666Z,4.80
2018-07-09T06:45:01.478Z,4.77
2018-07-09T06:47:31.037Z,4.57
2018-07-09T06:50:08.027Z,4.27
2018-07-09T06:52:38.160Z,4.40
2018-07-09T06:55:09.662Z,4.13
2018-07-09T06:57:39.365Z,3.93
2018-07-09T07:00:13.999Z,3.93
2018-07-09T07:02:44.461Z,4.10
2018-07-09T07:05:19.465Z,3.27
2018-07-09T07:07:51.423Z,3.47
2018-07-09T07:10:21.699Z,3.30
2018-07-09T07:12:51.548Z,3.93
2018-07-09T07:15:21.297Z,2.93
2018-07-09T07:17:57.336Z,2.73
2018-07-09T07:20:27.022Z,2.87
2018-07-09T07:22:57.269Z,2.37
2018-07-09T07:25:27.259Z,3.17
2018-07-09T07:28:04.154Z,2.63
2018-07-09T07:30:36.165Z,3.10
2018-07-09T07:33:06.327Z,3.13
2018-07-09T07:35:37.457Z,2.50
2018-07-09T07:38:16.348Z,3.20
2018-07-09T07:40:50.468Z,3.20
2018-07-09T07:43:26.428Z,2.40
2018-07-09T07:45:56.392Z,2.83
2018-07-09T07:48:32.789Z,2.70
2018-07-09T07:51:02.762Z,3.30
2018-07-09T07:53:32.664Z,3.13
2018-07-09T07:56:14.268Z,3.63
2018-07-09T07:58:44.600Z,3.20
2018-07-09T08:01:14.663Z,3.33
2018-07-09T08:03:49.035Z,3.27
2018-07-09T08:06:19.268Z,3.50
2018-07-09T08:08:49.526Z,3.43
2018-07-09T08:11:47.691Z,3.37
2018-07-09T08:14:09.867Z,3.97
2018-07-09T08:16:39.372Z,4.10
2018-07-09T08:19:09.679Z,3.40
2018-07-09T08:21:39.433Z,3.93
2018-07-09T08:24:08.989Z,3.50
2018-07-09T08:26:43.694Z,3.50
2018-07-09T09:44:57.474Z,2.30
2018-07-09T09:47:28.230Z,3.57
2018-07-09T09:49:59.959Z,2.50
2018-07-09T09:52:50.372Z,2.50
2018-07-09T09:55:57.084Z,2.23
2018-07-09T09:58:26.989Z,2.37
2018-07-09T10:00:57.050Z,2.63
2018-07-09T10:03:27.760Z,2.30
2018-07-09T10:05:57.415Z,2.30
2018-07-09T10:08:36.140Z,2.80
2018-07-09T10:11:06.673Z,2.20
2018-07-09T10:13:39.193Z,2.60
2018-07-09T10:16:09.259Z,3.00
2018-07-09T10:18:39.879Z,3.27
2018-07-09T10:21:11.999Z,2.47
2018-07-09T10:23:48.836Z,3.10
2018-07-09T10:26:19.657Z,2.27
2018-07-09T10:28:53.761Z,2.30
2018-07-09T10:31:31.417Z,2.60
2018-07-09T10:34:01.284Z,2.50
2018-07-09T10:36:32.709Z,2.27
2018-07-09T10:39:20.472Z,2.10
2018-07-09T10:41:55.947Z,2.33
2018-07-09T10:44:25.896Z,2.63
2018-07-09T10:46:56.771Z,1.60
2018-07-09T10:49:26.360Z,2.07
2018-07-09T10:51:56.242Z,1.93
2018-07-09T10:54:26.278Z,1.93
2018-07-09T10:56:55.826Z,1.93
2018-07-09T10:59:35.146Z,1.90
2018-07-09T11:02:11.117Z,2.03
2018-07-09T11:04:40.730Z,2.10
2018-07-09T11:07:10.747Z,2.00
2018-07-09T11:09:40.645Z,2.10
2018-07-09T11:12:16.103Z,2.10
2018-07-09T11:14:46.249Z,2.57
2018-07-09T11:17:19.448Z,2.60
2018-07-09T11:19:58.397Z,2.20
2018-07-09T11:22:28.660Z,2.13
2018-07-09T11:24:58.783Z,2.30
2018-07-09T11:27:34.373Z,2.40
2018-07-09T11:30:09.435Z,2.00
2018-07-09T11:32:39.055Z,2.37
2018-07-09T11:35:15.978Z,2.70
2018-07-09T11:37:45.895Z,2.30
2018-07-09T11:40:25.577Z,2.00
2018-07-09T11:42:57.731Z,2.60
2018-07-09T11:45:44.525Z,2.50
2018-07-09T11:48:14.798Z,2.50
2018-07-09T11:50:54.179Z,2.80
2018-07-09T11:53:28.150Z,2.90
2018-07-09T11:56:00.126Z,2.60
2018-07-09T11:58:29.775Z,2.10
2018-07-09T12:01:01.208Z,2.70
2018-07-09T12:03:32.704Z,2.67
2018-07-09T12:06:02.560Z,2.10
2018-07-09T12:08:37.241Z,2.13
2018-07-09T12:11:12.970Z,2.50
2018-07-09T12:13:43.036Z,2.27
2018-07-09T12:16:16.950Z,2.00
2018-07-09T12:18:48.046Z,2.10
2018-07-09T12:21:22.858Z,2.70
2018-07-09T12:23:59.792Z,1.90
2018-07-09T12:26:36.199Z,2.30
2018-07-09T12:29:06.893Z,2.17
2018-07-09T12:31:46.494Z,2.27
2018-07-09T12:34:17.031Z,2.10
2018-07-09T12:36:56.698Z,2.00
2018-07-09T12:39:29.970Z,1.70
2018-07-09T12:42:00.313Z,1.80
2018-07-09T12:44:30.498Z,1.80
2018-07-09T12:47:07.957Z,2.50
2018-07-09T12:49:37.785Z,2.00
2018-07-09T12:52:13.269Z,2.37
2018-07-09T12:54:48.833Z,1.80
2018-07-09T12:57:19.162Z,2.43
2018-07-09T12:59:48.971Z,2.07
2018-07-09T13:02:18.733Z,2.57
2018-07-09T13:04:57.211Z,2.67
2018-07-09T13:07:38.232Z,2.63
2018-07-09T13:10:08.747Z,2.20
2018-07-09T13:12:38.982Z,2.27
2018-07-09T13:17:38.806Z,2.17
2018-07-09T13:20:08.626Z,2.40
2018-07-09T13:22:54.539Z,2.60
2018-07-09T13:25:24.942Z,2.83
2018-07-09T13:28:04.683Z,2.90
2018-07-09T13:30:36.125Z,2.67
2018-07-09T13:35:41.221Z,3.17
2018-07-09T13:38:10.966Z,3.00
2018-07-09T13:40:41.378Z,3.17
2018-07-09T13:43:11.501Z,3.50
2018-07-09T13:45:43.652Z,3.13
2018-07-09T13:48:14.281Z,4.07
2018-07-09T13:50:48.545Z,3.60
2018-07-09T13:53:20.292Z,3.57
2018-07-09T13:58:30.298Z,3.43
2018-07-09T14:01:00.294Z,3.40
2018-07-09T14:03:34.376Z,3.87
2018-07-09T14:06:04.370Z,3.67
2018-07-09T14:08:34.726Z,4.00
2018-07-09T14:11:11.949Z,3.90
2018-07-09T14:13:47.194Z,4.20
2018-07-09T14:16:17.735Z,4.53
2018-07-09T14:21:56.389Z,4.03
2018-07-09T14:24:28.851Z,4.30
2018-07-09T14:26:58.461Z,4.10
2018-07-09T14:29:28.799Z,6.07
2018-07-09T14:31:58.404Z,3.60
2018-07-09T14:34:28.767Z,3.77
2018-07-09T14:36:58.788Z,3.83
2018-07-09T14:39:38.014Z,3.50
2018-07-09T14:42:18.199Z,3.80
2018-07-09T14:44:57.715Z,3.73
2018-07-09T14:47:29.573Z,3.70
2018-07-09T14:50:01.028Z,3.80
2018-07-09T14:52:31.159Z,3.50
2018-07-09T14:55:01.269Z,3.70
2018-07-09T14:57:33.226Z,3.77
2018-07-09T15:00:03.081Z,3.47
2018-07-09T15:02:37.452Z,3.40
2018-07-09T15:05:16.194Z,3.60
2018-07-09T15:07:46.458Z,4.23
2018-07-09T15:10:23.028Z,3.73
2018-07-09T15:12:58.246Z,4.00
2018-07-09T15:15:29.266Z,3.77
2018-07-09T15:17:58.915Z,4.00
2018-07-09T15:20:28.613Z,4.10
2018-07-09T15:22:59.799Z,3.83
2018-07-09T15:25:29.396Z,4.40
2018-07-09T15:27:59.404Z,3.47
2018-07-09T15:30:29.503Z,3.47
2018-07-09T15:32:59.007Z,3.60
2018-07-09T15:35:28.531Z,3.60
2018-07-09T15:37:58.747Z,3.77
2018-07-09T15:40:28.368Z,3.50
2018-07-09T15:43:07.696Z,3.13
2018-07-09T15:45:54.236Z,2.80
2018-07-09T15:48:24.319Z,2.80
2018-07-09T15:50:54.388Z,3.10
2018-07-09T15:53:32.938Z,2.77
2018-07-09T15:56:09.981Z,2.50
2018-07-09T15:58:40.371Z,2.87
2018-07-09T16:01:10.941Z,2.80
2018-07-09T16:03:40.746Z,2.93
2018-07-09T16:06:11.544Z,2.47
2018-07-09T16:08:42.742Z,2.33
2018-07-09T16:11:22.886Z,2.67
2018-07-09T16:13:53.418Z,2.93
2018-07-09T16:16:23.493Z,2.53
2018-07-09T16:18:53.288Z,2.37
2018-07-09T16:21:28.835Z,2.77
2018-07-09T16:24:14.676Z,2.60
2018-07-09T16:26:44.621Z,3.03
2018-07-09T16:29:14.607Z,3.80
2018-07-09T16:31:49.594Z,3.37
2018-07-09T16:34:19.504Z,3.40
2018-07-09T16:36:49.879Z,3.90
2018-07-09T16:39:23.625Z,4.20
2018-07-09T16:41:54.790Z,4.13
2018-07-09T16:44:45.750Z,3.90
2018-07-09T16:47:21.732Z,3.70
2018-07-09T16:49:52.092Z,3.57
2018-07-09T16:52:22.307Z,3.93
2018-07-09T16:54:53.057Z,4.03
2018-07-09T16:57:23.773Z,4.20
2018-07-09T16:59:53.495Z,4.77
2018-07-09T17:02:23.339Z,4.67
2018-07-09T17:04:55.306Z,4.70
2018-07-09T17:07:24.919Z,4.50
2018-07-09T17:09:54.586Z,4.97
2018-07-09T17:12:31.202Z,4.30
2018-07-09T17:15:06.326Z,4.50
2018-07-09T17:17:35.850Z,4.80
2018-07-09T17:20:06.063Z,7.13
2018-07-09T17:22:44.871Z,4.80
2018-07-09T17:25:15.038Z,5.40
2018-07-09T17:27:53.638Z,5.30
2018-07-09T17:30:23.545Z,5.10
2018-07-09T17:32:53.796Z,5.03
2018-07-09T17:35:23.648Z,4.47
2018-07-09T17:37:54.612Z,4.67
2018-07-09T17:40:24.425Z,4.97
2018-07-09T17:42:55.724Z,4.63
2018-07-09T17:45:26.772Z,4.43
2018-07-09T17:47:58.843Z,3.97
2018-07-09T17:50:48.183Z,3.80
2018-07-09T17:53:18.117Z,2.83
2018-07-09T17:55:49.301Z,2.57
2018-07-09T17:58:24.559Z,2.50
2018-07-09T18:00:54.755Z,2.47
2018-07-09T18:03:25.208Z,2.60
2018-07-09T18:05:56.615Z,2.80
2018-07-09T18:08:35.694Z,2.10
2018-07-09T18:11:06.214Z,2.23
2018-07-09T18:13:39.130Z,2.40
2018-07-09T18:16:08.967Z,2.00
2018-07-09T18:18:50.590Z,2.13
2018-07-09T18:21:29.533Z,2.37
2018-07-09T18:24:01.379Z,1.90
2018-07-09T18:26:31.803Z,2.23
2018-07-09T18:29:01.818Z,2.30
2018-07-09T18:31:32.530Z,2.60
2018-07-09T18:34:03.936Z,2.63
2018-07-09T18:36:41.854Z,2.50
2018-07-09T18:39:21.693Z,2.40
2018-07-09T18:41:51.589Z,2.87
2018-07-09T18:44:27.412Z,2.77
2018-07-09T18:47:01.921Z,2.07
2018-07-09T18:49:32.023Z,2.60
2018-07-09T18:52:07.409Z,2.17
2018-07-09T18:54:43.170Z,2.10
2018-07-09T18:57:19.383Z,1.87
2018-07-09T18:59:49.696Z,2.10
2018-07-09T19:02:33.198Z,2.37
2018-07-09T19:05:04.723Z,2.00
2018-07-09T19:07:35.237Z,2.47
2018-07-09T19:10:06.051Z,1.60
2018-07-09T19:12:37.637Z,2.10
2018-07-09T19:15:09.344Z,2.00
2018-07-09T19:18:04.664Z,2.50
2018-07-09T19:20:44.946Z,2.17
2018-07-09T19:23:13.446Z,2.20
2018-07-09T19:25:41.438Z,2.10
2018-07-09T19:28:09.461Z,2.13
2018-07-09T19:30:39.118Z,1.80
2018-07-09T19:33:08.007Z,1.90
2018-07-09T19:35:40.237Z,2.00
2018-07-09T19:38:11.672Z,1.80
2018-07-09T19:40:39.784Z,2.00
2018-07-09T19:43:07.826Z,2.03
2018-07-09T19:45:36.565Z,1.83
2018-07-09T19:48:05.811Z,1.87
2018-07-09T19:50:34.686Z,2.40
2018-07-09T19:53:03.114Z,2.07
2018-07-09T19:55:31.593Z,2.30
2018-07-09T19:57:59.631Z,2.60
2018-07-09T20:00:27.962Z,2.30
2018-07-09T20:02:57.153Z,2.40
2018-07-09T20:05:25.162Z,2.37
2018-07-09T20:07:53.491Z,2.90
2018-07-09T20:10:26.374Z,2.60
2018-07-09T20:13:10.496Z,2.87
2018-07-09T20:15:43.931Z,2.70
2018-07-09T20:18:20.868Z,2.87
2018-07-09T20:20:49.204Z,3.50
2018-07-09T20:23:17.193Z,3.30
2018-07-09T20:25:45.190Z,2.90
2018-07-09T20:28:15.383Z,3.43
2018-07-09T20:30:43.392Z,3.57
2018-07-09T20:33:20.145Z,3.20
2018-07-09T20:35:48.742Z,3.60
2018-07-09T20:38:18.525Z,3.23
2018-07-09T20:40:46.555Z,3.20
2018-07-09T20:43:22.879Z,2.90
2018-07-09T20:45:55.839Z,2.83
2018-07-09T20:48:32.478Z,2.93
2018-07-09T20:51:01.452Z,2.90
2018-07-09T20:53:29.926Z,3.30
2018-07-09T20:55:58.757Z,3.10
2018-07-09T20:58:29.406Z,3.20
2018-07-09T21:03:35.163Z,3.20
2018-07-09T21:06:03.540Z,3.50
2018-07-09T21:08:32.094Z,3.90
2018-07-09T21:11:01.787Z,3.20
2018-07-09T21:13:34.768Z,4.13
2018-07-09T21:18:40.945Z,3.53
2018-07-09T21:21:12.282Z,3.80
2018-07-09T21:23:46.001Z,3.87
2018-07-09T21:26:20.956Z,3.80
2018-07-09T21:28:56.618Z,4.07
2018-07-09T21:31:24.718Z,4.43
2018-07-09T21:33:54.818Z,4.20
2018-07-09T21:36:30.166Z,4.77
2018-07-09T21:38:59.733Z,5.07
2018-07-09T21:41:35.099Z,4.70
2018-07-09T21:44:04.688Z,4.87
2018-07-09T21:49:17.426Z,5.40
2018-07-09T21:51:45.746Z,5.30
2018-07-09T21:54:15.925Z,5.37
2018-07-09T21:56:44.744Z,5.23
2018-07-09T21:59:26.508Z,5.60
2018-07-09T22:01:56.304Z,5.60
2018-07-09T22:04:24.834Z,5.30
2018-07-09T22:06:54.120Z,4.90
2018-07-09T22:12:12.154Z,4.90
2018-07-09T22:14:42.221Z,5.27
2018-07-09T22:17:10.130Z,5.30
2018-07-09T22:19:38.111Z,5.60
2018-07-09T22:22:07.544Z,5.50
2018-07-09T22:24:35.747Z,5.80
2018-07-09T22:27:03.773Z,5.80
2018-07-09T22:29:32.222Z,7.50
2018-07-09T22:34:56.167Z,7.70
2018-07-09T22:37:26.445Z,8.90
2018-07-09T22:40:08.901Z,9.07
2018-07-09T22:42:38.949Z,11.00
2018-07-09T22:45:18.202Z,8.60
2018-07-09T22:47:51.446Z,10.40
2018-07-09T22:50:21.516Z,9.03
2018-07-09T22:52:51.705Z,9.20
2018-07-09T22:55:31.855Z,6.53
2018-07-09T22:58:03.546Z,6.70
2018-07-09T23:00:38.388Z,5.87
2018-07-09T23:03:16.558Z,6.33
2018-07-09T23:05:46.817Z,4.70
2018-07-09T23:08:18.707Z,4.60
2018-07-09T23:11:07.250Z,4.00
2018-07-09T23:13:51.961Z,3.97
2018-07-09T23:16:56.879Z,4.37
2018-07-09T23:21:46.599Z,4.07
2018-07-09T23:24:15.152Z,3.60
2018-07-09T23:26:49.490Z,3.90
2018-07-09T23:29:17.602Z,3.53
2018-07-09T23:31:56.294Z,3.37
2018-07-09T23:34:33.720Z,3.90
2018-07-09T23:37:02.023Z,3.40
2018-07-09T23:39:29.969Z,3.70
2018-07-09T23:42:03.488Z,3.93
2018-07-09T23:44:32.024Z,3.70
2018-07-09T23:47:04.166Z,3.97
2018-07-09T23:49:43.248Z,3.37
2018-07-09T23:52:11.574Z,4.80
2018-07-09T23:54:47.329Z,3.90
2018-07-09T23:57:31.516Z,3.60
